sensor_id;sensor_type;location;lat;lon;timestamp;pressure;altitude;pressure_sealevel;temperature;humidity
19236;BME280;9752;54.270;12.470;2022-09-03T00:00:21;102090.56;;;10.42;100.00
19236;BME280;9752;54.270;12.470;2022-09-03T00:05:43;102088.53;;;10.70;100.00
19236;BME280;9752;54.270;12.470;2022-09-03T00:11:00;102086.00;;;11.04;100.00
19236;BME280;9752;54.270;12.470;2022-09-03T00:16:12;102087.63;;;11.36;100.00
19236;BME280;9752;54.270;12.470;2022-09-03T00:21:36;102087.34;;;11.55;100.00
19236;BME280;9752;54.270;12.470;2022-09-03T00:26:52;102087.94;;;11.74;100.00
19236;BME280;9752;54.270;12.470;2022-09-03T00:32:10;102090.06;;;11.90;100.00
19236;BME280;9752;54.270;12.470;2022-09-03T00:37:20;102083.88;;;12.11;100.00
19236;BME280;9752;54.270;12.470;2022-09-03T00:42:32;102077.66;;;12.21;100.00
19236;BME280;9752;54.270;12.470;2022-09-03T00:47:46;102072.81;;;12.38;100.00
19236;BME280;9752;54.270;12.470;2022-09-03T00:52:58;102067.81;;;12.53;100.00
19236;BME280;9752;54.270;12.470;2022-09-03T00:58:25;102067.09;;;12.67;100.00
19236;BME280;9752;54.270;12.470;2022-09-03T01:03:37;102066.53;;;12.71;100.00
19236;BME280;9752;54.270;12.470;2022-09-03T01:09:11;102061.19;;;12.81;100.00
19236;BME280;9752;54.270;12.470;2022-09-03T01:14:22;102057.22;;;12.86;100.00
19236;BME280;9752;54.270;12.470;2022-09-03T01:19:43;102046.13;;;12.89;100.00
19236;BME280;9752;54.270;12.470;2022-09-03T01:25:14;102052.75;;;12.97;100.00
19236;BME280;9752;54.270;12.470;2022-09-03T01:30:19;102050.50;;;13.02;100.00
19236;BME280;9752;54.270;12.470;2022-09-03T01:35:27;102045.47;;;13.05;100.00
19236;BME280;9752;54.270;12.470;2022-09-03T01:40:36;102037.59;;;13.03;100.00
19236;BME280;9752;54.270;12.470;2022-09-03T01:45:52;102043.25;;;12.98;100.00
19236;BME280;9752;54.270;12.470;2022-09-03T01:50:58;102039.44;;;12.93;100.00
19236;BME280;9752;54.270;12.470;2022-09-03T01:56:14;102039.00;;;12.86;100.00
19236;BME280;9752;54.270;12.470;2022-09-03T02:01:26;102046.47;;;12.82;100.00
19236;BME280;9752;54.270;12.470;2022-09-03T02:06:29;102030.53;;;12.77;100.00
19236;BME280;9752;54.270;12.470;2022-09-03T02:11:32;102035.50;;;12.74;100.00
19236;BME280;9752;54.270;12.470;2022-09-03T02:16:35;102035.50;;;12.74;100.00
19236;BME280;9752;54.270;12.470;2022-09-03T02:21:42;102035.75;;;12.77;100.00
19236;BME280;9752;54.270;12.470;2022-09-03T02:26:46;102034.84;;;12.77;100.00
19236;BME280;9752;54.270;12.470;2022-09-03T02:31:49;102032.78;;;12.73;100.00
19236;BME280;9752;54.270;12.470;2022-09-03T02:36:51;102033.38;;;12.68;100.00
19236;BME280;9752;54.270;12.470;2022-09-03T02:41:55;102031.34;;;12.64;100.00
19236;BME280;9752;54.270;12.470;2022-09-03T02:47:01;102037.81;;;12.58;100.00
19236;BME280;9752;54.270;12.470;2022-09-03T02:52:05;102027.31;;;12.56;100.00
19236;BME280;9752;54.270;12.470;2022-09-03T02:57:10;102031.38;;;12.53;100.00
19236;BME280;9752;54.270;12.470;2022-09-03T03:02:14;102034.75;;;12.52;100.00
19236;BME280;9752;54.270;12.470;2022-09-03T03:07:15;102028.78;;;12.53;100.00
19236;BME280;9752;54.270;12.470;2022-09-03T03:12:17;102035.69;;;12.52;100.00
19236;BME280;9752;54.270;12.470;2022-09-03T03:17:21;102030.00;;;12.46;100.00
19236;BME280;9752;54.270;12.470;2022-09-03T03:22:22;102030.59;;;12.42;100.00
19236;BME280;9752;54.270;12.470;2022-09-03T03:27:24;102034.53;;;12.37;100.00
19236;BME280;9752;54.270;12.470;2022-09-03T03:32:28;102035.34;;;12.36;100.00
19236;BME280;9752;54.270;12.470;2022-09-03T03:37:30;102042.28;;;12.35;100.00
19236;BME280;9752;54.270;12.470;2022-09-03T03:42:32;102048.50;;;12.37;100.00
19236;BME280;9752;54.270;12.470;2022-09-03T03:47:36;102041.78;;;12.29;100.00
19236;BME280;9752;54.270;12.470;2022-09-03T03:52:37;102051.88;;;12.24;100.00
19236;BME280;9752;54.270;12.470;2022-09-03T03:57:39;102056.72;;;12.20;100.00
19236;BME280;9752;54.270;12.470;2022-09-03T04:02:42;102049.63;;;12.17;100.00
19236;BME280;9752;54.270;12.470;2022-09-03T04:07:44;102054.13;;;12.20;100.00
19236;BME280;9752;54.270;12.470;2022-09-03T04:12:45;102055.16;;;12.22;100.00
19236;BME280;9752;54.270;12.470;2022-09-03T04:17:48;102063.75;;;12.21;100.00
19236;BME280;9752;54.270;12.470;2022-09-03T04:22:50;102058.31;;;12.18;100.00
19236;BME280;9752;54.270;12.470;2022-09-03T04:27:52;102068.97;;;12.21;100.00
19236;BME280;9752;54.270;12.470;2022-09-03T04:32:55;102067.94;;;12.19;100.00
19236;BME280;9752;54.270;12.470;2022-09-03T04:37:57;102072.91;;;12.16;100.00
19236;BME280;9752;54.270;12.470;2022-09-03T04:42:58;102081.84;;;12.31;100.00
19236;BME280;9752;54.270;12.470;2022-09-03T04:48:03;102087.50;;;12.49;100.00
19236;BME280;9752;54.270;12.470;2022-09-03T04:53:05;102093.25;;;12.68;100.00
19236;BME280;9752;54.270;12.470;2022-09-03T04:58:06;102098.31;;;12.91;100.00
19236;BME280;9752;54.270;12.470;2022-09-03T05:03:10;102105.06;;;13.00;100.00
19236;BME280;9752;54.270;12.470;2022-09-03T05:08:11;102103.06;;;12.96;100.00
19236;BME280;9752;54.270;12.470;2022-09-03T05:13:13;102107.72;;;12.88;100.00
19236;BME280;9752;54.270;12.470;2022-09-03T05:18:16;102103.09;;;12.73;100.00
19236;BME280;9752;54.270;12.470;2022-09-03T05:23:18;102098.91;;;12.63;100.00
19236;BME280;9752;54.270;12.470;2022-09-03T05:28:21;102106.97;;;12.54;100.00
19236;BME280;9752;54.270;12.470;2022-09-03T05:33:24;102113.41;;;12.59;100.00
19236;BME280;9752;54.270;12.470;2022-09-03T05:38:27;102118.50;;;12.58;100.00
19236;BME280;9752;54.270;12.470;2022-09-03T05:43:30;102120.66;;;12.75;100.00
19236;BME280;9752;54.270;12.470;2022-09-03T05:48:33;102120.84;;;12.90;100.00
19236;BME280;9752;54.270;12.470;2022-09-03T05:53:38;102119.09;;;13.02;100.00
19236;BME280;9752;54.270;12.470;2022-09-03T05:58:41;102120.31;;;13.19;100.00
19236;BME280;9752;54.270;12.470;2022-09-03T06:03:51;102118.81;;;13.35;100.00
19236;BME280;9752;54.270;12.470;2022-09-03T06:08:55;102118.69;;;13.45;100.00
19236;BME280;9752;54.270;12.470;2022-09-03T06:13:59;102126.91;;;13.51;100.00
19236;BME280;9752;54.270;12.470;2022-09-03T06:19:03;102119.16;;;13.64;100.00
19236;BME280;9752;54.270;12.470;2022-09-03T06:24:10;102122.47;;;13.75;100.00
19236;BME280;9752;54.270;12.470;2022-09-03T06:29:12;102126.44;;;13.95;100.00
19236;BME280;9752;54.270;12.470;2022-09-03T06:34:15;102122.88;;;14.20;100.00
19236;BME280;9752;54.270;12.470;2022-09-03T06:39:18;102123.28;;;14.39;100.00
19236;BME280;9752;54.270;12.470;2022-09-03T06:44:19;102125.72;;;14.50;100.00
19236;BME280;9752;54.270;12.470;2022-09-03T06:49:23;102133.75;;;14.79;100.00
19236;BME280;9752;54.270;12.470;2022-09-03T06:54:25;102126.50;;;15.02;100.00
19236;BME280;9752;54.270;12.470;2022-09-03T06:59:27;102129.66;;;15.25;100.00
19236;BME280;9752;54.270;12.470;2022-09-03T07:04:30;102134.69;;;15.50;100.00
19236;BME280;9752;54.270;12.470;2022-09-03T07:09:34;102136.41;;;15.77;100.00
19236;BME280;9752;54.270;12.470;2022-09-03T07:14:38;102134.63;;;15.91;100.00
19236;BME280;9752;54.270;12.470;2022-09-03T07:19:41;102137.00;;;16.02;100.00
19236;BME280;9752;54.270;12.470;2022-09-03T07:24:43;102126.88;;;16.37;100.00
19236;BME280;9752;54.270;12.470;2022-09-03T07:29:47;102118.47;;;16.43;100.00
19236;BME280;9752;54.270;12.470;2022-09-03T07:34:50;102118.03;;;16.35;100.00
19236;BME280;9752;54.270;12.470;2022-09-03T07:39:52;102133.03;;;16.69;100.00
19236;BME280;9752;54.270;12.470;2022-09-03T07:44:53;102141.97;;;16.88;100.00
19236;BME280;9752;54.270;12.470;2022-09-03T07:49:56;102142.88;;;17.20;100.00
19236;BME280;9752;54.270;12.470;2022-09-03T07:54:59;102143.75;;;17.20;100.00
19236;BME280;9752;54.270;12.470;2022-09-03T08:00:03;102141.72;;;17.64;100.00
19236;BME280;9752;54.270;12.470;2022-09-03T08:05:13;102137.94;;;17.75;100.00
19236;BME280;9752;54.270;12.470;2022-09-03T08:10:15;102127.44;;;17.75;100.00
19236;BME280;9752;54.270;12.470;2022-09-03T08:15:17;102126.72;;;17.94;100.00
19236;BME280;9752;54.270;12.470;2022-09-03T08:20:20;102141.34;;;18.23;100.00
19236;BME280;9752;54.270;12.470;2022-09-03T08:25:21;102135.44;;;18.63;100.00
19236;BME280;9752;54.270;12.470;2022-09-03T08:30:24;102134.22;;;18.57;100.00
19236;BME280;9752;54.270;12.470;2022-09-03T08:35:28;102132.19;;;18.51;100.00
19236;BME280;9752;54.270;12.470;2022-09-03T08:40:36;102138.88;;;18.98;100.00
19236;BME280;9752;54.270;12.470;2022-09-03T08:45:38;102138.63;;;18.76;100.00
19236;BME280;9752;54.270;12.470;2022-09-03T08:50:44;102139.59;;;18.78;100.00
19236;BME280;9752;54.270;12.470;2022-09-03T08:55:51;102136.69;;;19.07;100.00
19236;BME280;9752;54.270;12.470;2022-09-03T09:00:56;102142.75;;;19.06;100.00
19236;BME280;9752;54.270;12.470;2022-09-03T09:06:09;102139.22;;;19.24;100.00
19236;BME280;9752;54.270;12.470;2022-09-03T09:11:19;102129.38;;;19.39;100.00
19236;BME280;9752;54.270;12.470;2022-09-03T09:16:32;102127.41;;;19.16;100.00
19236;BME280;9752;54.270;12.470;2022-09-03T09:21:40;102123.16;;;19.57;100.00
19236;BME280;9752;54.270;12.470;2022-09-03T09:26:45;102137.28;;;19.59;100.00
19236;BME280;9752;54.270;12.470;2022-09-03T09:31:47;102126.03;;;19.82;100.00
19236;BME280;9752;54.270;12.470;2022-09-03T09:36:52;102133.81;;;19.79;100.00
19236;BME280;9752;54.270;12.470;2022-09-03T09:41:58;102129.00;;;19.70;100.00
19236;BME280;9752;54.270;12.470;2022-09-03T09:47:02;102118.19;;;20.03;100.00
19236;BME280;9752;54.270;12.470;2022-09-03T09:52:10;102115.63;;;20.47;100.00
19236;BME280;9752;54.270;12.470;2022-09-03T09:57:15;102109.03;;;20.37;100.00
19236;BME280;9752;54.270;12.470;2022-09-03T10:02:24;102096.00;;;20.40;100.00
19236;BME280;9752;54.270;12.470;2022-09-03T10:07:30;102096.91;;;19.99;100.00
19236;BME280;9752;54.270;12.470;2022-09-03T10:12:36;102103.34;;;19.45;100.00
19236;BME280;9752;54.270;12.470;2022-09-03T10:17:51;102102.66;;;19.10;100.00
19236;BME280;9752;54.270;12.470;2022-09-03T10:23:06;102088.78;;;19.34;100.00
19236;BME280;9752;54.270;12.470;2022-09-03T10:28:11;102090.28;;;19.68;100.00
19236;BME280;9752;54.270;12.470;2022-09-03T10:33:16;102077.13;;;20.52;100.00
19236;BME280;9752;54.270;12.470;2022-09-03T10:38:26;102078.72;;;20.70;100.00
19236;BME280;9752;54.270;12.470;2022-09-03T10:43:44;102077.13;;;20.52;100.00
19236;BME280;9752;54.270;12.470;2022-09-03T10:49:11;102072.47;;;20.24;100.00
19236;BME280;9752;54.270;12.470;2022-09-03T10:54:33;102057.16;;;20.57;100.00
19236;BME280;9752;54.270;12.470;2022-09-03T10:59:51;102049.09;;;20.54;100.00
19236;BME280;9752;54.270;12.470;2022-09-03T11:05:00;102046.03;;;20.87;100.00
19236;BME280;9752;54.270;12.470;2022-09-03T11:10:12;102051.13;;;21.53;100.00
19236;BME280;9752;54.270;12.470;2022-09-03T11:15:22;102047.97;;;20.47;100.00
19236;BME280;9752;54.270;12.470;2022-09-03T11:20:26;102050.66;;;20.26;100.00
19236;BME280;9752;54.270;12.470;2022-09-03T11:25:32;102042.25;;;19.93;100.00
19236;BME280;9752;54.270;12.470;2022-09-03T11:30:45;102043.47;;;19.80;100.00
19236;BME280;9752;54.270;12.470;2022-09-03T11:35:55;102035.69;;;20.04;100.00
19236;BME280;9752;54.270;12.470;2022-09-03T11:41:01;102034.56;;;19.98;100.00
19236;BME280;9752;54.270;12.470;2022-09-03T11:46:05;102030.56;;;20.96;100.00
19236;BME280;9752;54.270;12.470;2022-09-03T11:51:20;102031.63;;;20.13;100.00
19236;BME280;9752;54.270;12.470;2022-09-03T11:56:32;102016.00;;;21.08;100.00
19236;BME280;9752;54.270;12.470;2022-09-03T12:01:36;102015.44;;;20.24;100.00
19236;BME280;9752;54.270;12.470;2022-09-03T12:06:57;102003.69;;;20.39;100.00
19236;BME280;9752;54.270;12.470;2022-09-03T12:12:13;102002.50;;;20.53;100.00
19236;BME280;9752;54.270;12.470;2022-09-03T12:17:34;102006.69;;;20.25;100.00
19236;BME280;9752;54.270;12.470;2022-09-03T12:22:39;101999.03;;;21.49;100.00
19236;BME280;9752;54.270;12.470;2022-09-03T12:27:43;101983.41;;;22.96;100.00
19236;BME280;9752;54.270;12.470;2022-09-03T12:32:46;101991.16;;;22.88;99.69
19236;BME280;9752;54.270;12.470;2022-09-03T12:37:51;101992.91;;;21.00;100.00
19236;BME280;9752;54.270;12.470;2022-09-03T12:43:11;101985.13;;;20.81;100.00
19236;BME280;9752;54.270;12.470;2022-09-03T12:48:14;101982.97;;;20.48;100.00
19236;BME280;9752;54.270;12.470;2022-09-03T12:53:21;101984.50;;;20.20;100.00
19236;BME280;9752;54.270;12.470;2022-09-03T12:58:30;101971.53;;;20.47;100.00
19236;BME280;9752;54.270;12.470;2022-09-03T13:03:43;101973.16;;;20.44;100.00
19236;BME280;9752;54.270;12.470;2022-09-03T13:08:50;101967.09;;;20.24;100.00
19236;BME280;9752;54.270;12.470;2022-09-03T13:13:58;101956.81;;;20.30;100.00
19236;BME280;9752;54.270;12.470;2022-09-03T13:19:08;101962.19;;;20.33;100.00
19236;BME280;9752;54.270;12.470;2022-09-03T13:24:22;101965.06;;;19.33;100.00
19236;BME280;9752;54.270;12.470;2022-09-03T13:29:40;101962.25;;;19.28;100.00
19236;BME280;9752;54.270;12.470;2022-09-03T13:34:51;101961.97;;;20.50;100.00
19236;BME280;9752;54.270;12.470;2022-09-03T13:39:56;101956.47;;;20.21;100.00
19236;BME280;9752;54.270;12.470;2022-09-03T13:45:07;101948.72;;;20.25;100.00
19236;BME280;9752;54.270;12.470;2022-09-03T13:50:18;101956.78;;;21.23;100.00
19236;BME280;9752;54.270;12.470;2022-09-03T13:55:26;101952.06;;;20.21;100.00
19236;BME280;9752;54.270;12.470;2022-09-03T14:00:34;101952.16;;;20.68;100.00
19236;BME280;9752;54.270;12.470;2022-09-03T14:05:49;101955.91;;;20.29;100.00
19236;BME280;9752;54.270;12.470;2022-09-03T14:11:04;101952.13;;;20.00;100.00
19236;BME280;9752;54.270;12.470;2022-09-03T14:16:19;101952.66;;;19.92;100.00
19236;BME280;9752;54.270;12.470;2022-09-03T14:21:28;101950.53;;;20.72;100.00
19236;BME280;9752;54.270;12.470;2022-09-03T14:26:33;101952.19;;;20.02;100.00
19236;BME280;9752;54.270;12.470;2022-09-03T14:32:02;101945.38;;;20.29;100.00
19236;BME280;9752;54.270;12.470;2022-09-03T14:37:14;101940.25;;;20.79;100.00
19236;BME280;9752;54.270;12.470;2022-09-03T14:42:39;101940.81;;;20.48;100.00
19236;BME280;9752;54.270;12.470;2022-09-03T14:48:11;101954.94;;;19.63;100.00
19236;BME280;9752;54.270;12.470;2022-09-03T14:53:50;101951.09;;;19.55;100.00
19236;BME280;9752;54.270;12.470;2022-09-03T14:59:17;101946.16;;;22.28;100.00
19236;BME280;9752;54.270;12.470;2022-09-03T15:04:44;101943.41;;;23.84;100.00
19236;BME280;9752;54.270;12.470;2022-09-03T15:09:56;101938.94;;;23.83;100.00
19236;BME280;9752;54.270;12.470;2022-09-03T15:15:06;101946.78;;;23.45;100.00
19236;BME280;9752;54.270;12.470;2022-09-03T15:20:18;101945.09;;;21.17;100.00
19236;BME280;9752;54.270;12.470;2022-09-03T15:25:27;101949.63;;;20.03;100.00
19236;BME280;9752;54.270;12.470;2022-09-03T15:30:40;101943.72;;;21.28;100.00
19236;BME280;9752;54.270;12.470;2022-09-03T15:35:59;101941.53;;;23.80;100.00
19236;BME280;9752;54.270;12.470;2022-09-03T15:41:07;101949.97;;;24.01;100.00
19236;BME280;9752;54.270;12.470;2022-09-03T15:46:29;101945.81;;;24.12;100.00
19236;BME280;9752;54.270;12.470;2022-09-03T15:51:41;101956.38;;;23.06;100.00
19236;BME280;9752;54.270;12.470;2022-09-03T15:56:52;101945.44;;;23.61;100.00
19236;BME280;9752;54.270;12.470;2022-09-03T16:01:58;101952.13;;;24.17;100.00
19236;BME280;9752;54.270;12.470;2022-09-03T16:07:09;101951.69;;;23.99;100.00
19236;BME280;9752;54.270;12.470;2022-09-03T16:12:27;101954.38;;;24.39;99.58
19236;BME280;9752;54.270;12.470;2022-09-03T16:17:35;101955.38;;;24.04;100.00
19236;BME280;9752;54.270;12.470;2022-09-03T16:22:46;101961.97;;;19.83;100.00
19236;BME280;9752;54.270;12.470;2022-09-03T16:27:52;101960.13;;;19.40;100.00
19236;BME280;9752;54.270;12.470;2022-09-03T16:33:09;101957.53;;;21.71;100.00
19236;BME280;9752;54.270;12.470;2022-09-03T16:38:23;101942.66;;;22.89;100.00
19236;BME280;9752;54.270;12.470;2022-09-03T16:43:36;101954.66;;;22.46;100.00
19236;BME280;9752;54.270;12.470;2022-09-03T16:48:52;101956.09;;;22.97;100.00
19236;BME280;9752;54.270;12.470;2022-09-03T16:54:09;101961.03;;;21.97;100.00
19236;BME280;9752;54.270;12.470;2022-09-03T16:59:31;101962.31;;;21.82;100.00
19236;BME280;9752;54.270;12.470;2022-09-03T17:04:53;101966.47;;;21.76;100.00
19236;BME280;9752;54.270;12.470;2022-09-03T17:10:02;101963.81;;;21.49;100.00
19236;BME280;9752;54.270;12.470;2022-09-03T17:15:16;101971.34;;;20.43;100.00
19236;BME280;9752;54.270;12.470;2022-09-03T17:20:32;101969.94;;;19.44;100.00
19236;BME280;9752;54.270;12.470;2022-09-03T17:25:49;101980.28;;;18.24;100.00
19236;BME280;9752;54.270;12.470;2022-09-03T17:30:56;101980.31;;;17.03;100.00
19236;BME280;9752;54.270;12.470;2022-09-03T17:36:07;101975.38;;;16.60;100.00
19236;BME280;9752;54.270;12.470;2022-09-03T17:41:20;101983.41;;;16.32;100.00
19236;BME280;9752;54.270;12.470;2022-09-03T17:46:32;101985.19;;;16.02;100.00
19236;BME280;9752;54.270;12.470;2022-09-03T17:51:41;101982.16;;;15.94;100.00
19236;BME280;9752;54.270;12.470;2022-09-03T17:56:51;102001.56;;;15.83;100.00
19236;BME280;9752;54.270;12.470;2022-09-03T18:02:01;102000.97;;;15.58;100.00
19236;BME280;9752;54.270;12.470;2022-09-03T18:07:08;102002.31;;;15.37;100.00
19236;BME280;9752;54.270;12.470;2022-09-03T18:12:25;102006.44;;;15.18;100.00
19236;BME280;9752;54.270;12.470;2022-09-03T18:17:32;102010.13;;;15.22;100.00
19236;BME280;9752;54.270;12.470;2022-09-03T18:22:43;102016.06;;;15.19;100.00
19236;BME280;9752;54.270;12.470;2022-09-03T18:28:11;102013.91;;;15.12;100.00
19236;BME280;9752;54.270;12.470;2022-09-03T18:33:32;102020.28;;;15.02;100.00
19236;BME280;9752;54.270;12.470;2022-09-03T18:38:56;102020.34;;;15.04;100.00
19236;BME280;9752;54.270;12.470;2022-09-03T18:44:28;102024.72;;;15.18;100.00
19236;BME280;9752;54.270;12.470;2022-09-03T18:49:52;102026.88;;;15.11;100.00
19236;BME280;9752;54.270;12.470;2022-09-03T18:55:22;102031.72;;;15.05;100.00
19236;BME280;9752;54.270;12.470;2022-09-03T19:00:53;102030.06;;;14.92;100.00
19236;BME280;9752;54.270;12.470;2022-09-03T19:06:23;102032.34;;;14.72;100.00
19236;BME280;9752;54.270;12.470;2022-09-03T19:11:54;102045.59;;;14.62;100.00
19236;BME280;9752;54.270;12.470;2022-09-03T19:17:24;102037.75;;;14.35;100.00
19236;BME280;9752;54.270;12.470;2022-09-03T19:22:45;102038.16;;;14.28;100.00
19236;BME280;9752;54.270;12.470;2022-09-03T19:28:18;102042.69;;;14.31;100.00
19236;BME280;9752;54.270;12.470;2022-09-03T19:33:45;102041.09;;;14.33;100.00
19236;BME280;9752;54.270;12.470;2022-09-03T19:39:13;102044.19;;;14.40;100.00
19236;BME280;9752;54.270;12.470;2022-09-03T19:44:45;102045.47;;;14.47;100.00
19236;BME280;9752;54.270;12.470;2022-09-03T19:50:16;102046.41;;;14.48;100.00
19236;BME280;9752;54.270;12.470;2022-09-03T19:55:42;102046.59;;;14.51;100.00
19236;BME280;9752;54.270;12.470;2022-09-03T20:01:03;102052.22;;;14.57;100.00
19236;BME280;9752;54.270;12.470;2022-09-03T20:06:23;102053.31;;;14.60;100.00
19236;BME280;9752;54.270;12.470;2022-09-03T20:11:44;102061.09;;;14.59;100.00
19236;BME280;9752;54.270;12.470;2022-09-03T20:17:01;102059.25;;;14.58;100.00
19236;BME280;9752;54.270;12.470;2022-09-03T20:22:14;102056.34;;;14.53;100.00
19236;BME280;9752;54.270;12.470;2022-09-03T20:27:29;102060.56;;;14.64;100.00
19236;BME280;9752;54.270;12.470;2022-09-03T20:33:10;102059.03;;;14.55;100.00
19236;BME280;9752;54.270;12.470;2022-09-03T20:38:37;102059.25;;;14.58;100.00
19236;BME280;9752;54.270;12.470;2022-09-03T20:44:03;102064.50;;;14.58;100.00
19236;BME280;9752;54.270;12.470;2022-09-03T20:49:17;102061.88;;;14.58;100.00
19236;BME280;9752;54.270;12.470;2022-09-03T20:54:28;102065.16;;;14.55;100.00
19236;BME280;9752;54.270;12.470;2022-09-03T20:59:43;102063.47;;;14.69;100.00
19236;BME280;9752;54.270;12.470;2022-09-03T21:04:56;102066.34;;;14.74;100.00
19236;BME280;9752;54.270;12.470;2022-09-03T21:10:07;102055.22;;;14.76;100.00
19236;BME280;9752;54.270;12.470;2022-09-03T21:15:17;102061.97;;;14.73;100.00
19236;BME280;9752;54.270;12.470;2022-09-03T21:20:27;102062.22;;;14.77;100.00
19236;BME280;9752;54.270;12.470;2022-09-03T21:25:40;102060.63;;;14.79;100.00
19236;BME280;9752;54.270;12.470;2022-09-03T21:30:47;102074.28;;;14.75;100.00
19236;BME280;9752;54.270;12.470;2022-09-03T21:35:57;102073.69;;;14.66;100.00
19236;BME280;9752;54.270;12.470;2022-09-03T21:41:11;102076.63;;;14.71;100.00
19236;BME280;9752;54.270;12.470;2022-09-03T21:46:19;102087.56;;;14.78;100.00
19236;BME280;9752;54.270;12.470;2022-09-03T21:51:25;102082.63;;;14.70;100.00
19236;BME280;9752;54.270;12.470;2022-09-03T22:02:11;102083.72;;;14.87;100.00
19236;BME280;9752;54.270;12.470;2022-09-03T22:07:22;102086.53;;;14.90;100.00
19236;BME280;9752;54.270;12.470;2022-09-03T22:12:31;102086.22;;;14.85;100.00
19236;BME280;9752;54.270;12.470;2022-09-03T22:17:43;102088.94;;;14.87;100.00
19236;BME280;9752;54.270;12.470;2022-09-03T22:22:52;102085.97;;;15.09;100.00
19236;BME280;9752;54.270;12.470;2022-09-03T22:28:03;102103.19;;;15.05;100.00
19236;BME280;9752;54.270;12.470;2022-09-03T22:33:14;102108.34;;;14.77;100.00
19236;BME280;9752;54.270;12.470;2022-09-03T22:38:44;102099.44;;;14.60;100.00
19236;BME280;9752;54.270;12.470;2022-09-03T22:43:59;102107.34;;;14.75;100.00
19236;BME280;9752;54.270;12.470;2022-09-03T22:49:25;102116.50;;;14.68;100.00
19236;BME280;9752;54.270;12.470;2022-09-03T22:54:40;102111.69;;;14.61;100.00
19236;BME280;9752;54.270;12.470;2022-09-03T22:59:53;102115.47;;;14.53;100.00
19236;BME280;9752;54.270;12.470;2022-09-03T23:05:02;102118.06;;;14.39;100.00
19236;BME280;9752;54.270;12.470;2022-09-03T23:10:09;102123.88;;;14.22;100.00
19236;BME280;9752;54.270;12.470;2022-09-03T23:15:17;102130.50;;;14.17;100.00
19236;BME280;9752;54.270;12.470;2022-09-03T23:20:24;102125.66;;;13.96;100.00
19236;BME280;9752;54.270;12.470;2022-09-03T23:25:30;102126.25;;;13.67;100.00
19236;BME280;9752;54.270;12.470;2022-09-03T23:30:34;102126.88;;;13.38;100.00
19236;BME280;9752;54.270;12.470;2022-09-03T23:35:46;102130.66;;;13.06;100.00
19236;BME280;9752;54.270;12.470;2022-09-03T23:40:50;102126.53;;;12.84;100.00
19236;BME280;9752;54.270;12.470;2022-09-03T23:46:02;102124.47;;;12.68;100.00
19236;BME280;9752;54.270;12.470;2022-09-03T23:51:13;102125.97;;;12.53;100.00
